| time (UTC) | temp C | wind direction | speed KPH | gust KPH | rain 1hr cm | rain 24hr cm | rain mn cm | humidity % | barometer mb |
| 20260505140556 | 10 | 49 | 1.6 | 11.3 | 0.00 | 0.00 | 0.00 | 49 | 1011.5 |
| 20260505140132 | 10 | 50 | 4.8 | 11.3 | 0.00 | 0.00 | 0.00 | 46 | 1011.2 |
| 20260505124607 | 9 | 50 | 0.0 | 3.2 | 0.00 | 0.00 | 0.00 | 62 | 1010.5 |
| 20260505124056 | 9 | 0 | 0.0 | 0.0 | 0.00 | 0.00 | 0.00 | 64 | 1010.4 |
| 20260505123600 | 8 | 0 | 0.0 | 0.0 | 0.00 | 0.00 | 0.00 | 65 | 1010.5 |
| 20260505123112 | 8 | 0 | 0.0 | 0.0 | 0.00 | 0.00 | 0.00 | 67 | 1010.5 |
| 20260505122558 | 7 | 0 | 0.0 | 0.0 | 0.00 | 0.00 | 0.00 | 69 | 1010.6 |
| 20260505122058 | 7 | 0 | 0.0 | 0.0 | 0.00 | 0.00 | 0.00 | 70 | 1010.8 |
| 20260505121557 | 7 | 0 | 0.0 | 1.6 | 0.00 | 0.00 | 0.00 | 72 | 1010.8 |
| 20260505121058 | 6 | 0 | 0.0 | 3.2 | 0.00 | 0.00 | 0.00 | 73 | 1010.8 |
| 20260505120556 | 6 | 0 | 0.0 | 3.2 | 0.00 | 0.00 | 0.00 | 74 | 1010.7 |
| 20260505120057 | 6 | 50 | 0.0 | 3.2 | 0.00 | 0.00 | 0.00 | 74 | 1010.7 |
| 20260505115555 | 6 | 0 | 0.0 | 3.2 | 0.00 | 0.00 | 0.00 | 73 | 1010.7 |
| 20260505115055 | 6 | 0 | 0.0 | 1.6 | 0.00 | 0.00 | 0.00 | 73 | 1010.7 |
| 20260505114603 | 6 | 0 | 0.0 | 1.6 | 0.00 | 0.00 | 0.00 | 73 | 1010.6 |
| 20260505114058 | 6 | 0 | 0.0 | 3.2 | 0.00 | 0.00 | 0.00 | 73 | 1010.6 |
| 20260505113600 | 6 | 0 | 0.0 | 3.2 | 0.00 | 0.00 | 0.00 | 73 | 1010.4 |
| 20260505113059 | 6 | 0 | 0.0 | 0.0 | 0.00 | 0.00 | 0.00 | 72 | 1010.4 |
| 20260505112558 | 6 | 0 | 0.0 | 0.0 | 0.00 | 0.00 | 0.00 | 71 | 1010.4 |
| 20260505112059 | 6 | 0 | 0.0 | 0.0 | 0.00 | 0.00 | 0.00 | 71 | 1010.7 |
| 20260505111602 | 6 | 0 | 0.0 | 0.0 | 0.00 | 0.00 | 0.00 | 70 | 1010.4 |
| 20260505111058 | 7 | 0 | 0.0 | 0.0 | 0.00 | 0.00 | 0.00 | 69 | 1010.3 |
| 20260505110557 | 7 | 0 | 0.0 | 0.0 | 0.00 | 0.00 | 0.00 | 66 | 1010.2 |
| 20260505102055 | 7 | 0 | 0.0 | 0.0 | 0.00 | 0.00 | 0.00 | 58 | 1009.5 |
| 20260505101559 | 7 | 0 | 0.0 | 0.0 | 0.00 | 0.00 | 0.00 | 58 | 1009.6 |
| 20260505101101 | 7 | 0 | 0.0 | 0.0 | 0.00 | 0.00 | 0.00 | 57 | 1009.6 |
| 20260505100556 | 7 | 0 | 0.0 | 0.0 | 0.00 | 0.00 | 0.00 | 57 | 1009.6 |
| 20260505100103 | 8 | 0 | 0.0 | 3.2 | 0.00 | 0.00 | 0.00 | 56 | 1009.4 |
| 20260505095557 | 8 | 0 | 0.0 | 3.2 | 0.00 | 0.00 | 0.00 | 56 | 1009.4 |
| 20260505095059 | 8 | 0 | 0.0 | 4.8 | 0.00 | 0.00 | 0.00 | 55 | 1009.5 |
| 20260505094608 | 8 | 50 | 1.6 | 4.8 | 0.00 | 0.00 | 0.00 | 55 | 1009.3 |
| 20260505094058 | 8 | 50 | 1.6 | 4.8 | 0.00 | 0.00 | 0.00 | 54 | 1009.3 |
| 20260505093600 | 8 | 0 | 0.0 | 4.8 | 0.00 | 0.00 | 0.00 | 54 | 1009.5 |
| 20260505093057 | 8 | 0 | 0.0 | 6.4 | 0.00 | 0.00 | 0.00 | 54 | 1009.4 |
| 20260505092601 | 8 | 50 | 1.6 | 6.4 | 0.00 | 0.00 | 0.00 | 54 | 1009.2 |
| 20260505092058 | 8 | 50 | 1.6 | 6.4 | 0.00 | 0.00 | 0.00 | 54 | 1008.9 |
| 20260505091557 | 8 | 49 | 1.6 | 6.4 | 0.00 | 0.00 | 0.00 | 54 | 1008.7 |
| 20260505091055 | 8 | 49 | 1.6 | 8.0 | 0.00 | 0.00 | 0.00 | 55 | 1008.6 |
| 20260505090556 | 8 | 46 | 1.6 | 8.0 | 0.00 | 0.00 | 0.00 | 55 | 1008.6 |
| 20260505090108 | 8 | 26 | 3.2 | 9.7 | 0.00 | 0.00 | 0.00 | 56 | 1008.5 |
| 20260505085556 | 8 | 26 | 3.2 | 9.7 | 0.00 | 0.00 | 0.00 | 56 | 1008.1 |
| 20260505085057 | 8 | 26 | 4.8 | 9.7 | 0.00 | 0.00 | 0.00 | 57 | 1008.0 |
| 20260505084558 | 8 | 37 | 0.0 | 6.4 | 0.00 | 0.00 | 0.00 | 59 | 1008.0 |
| 20260505084056 | 8 | 30 | 1.6 | 6.4 | 0.00 | 0.00 | 0.00 | 59 | 1007.9 |
| 20260505083558 | 9 | 30 | 1.6 | 6.4 | 0.00 | 0.00 | 0.00 | 60 | 1007.8 |
| 20260505083109 | 9 | 31 | 3.2 | 6.4 | 0.00 | 0.00 | 0.00 | 61 | 1007.6 |
| 20260505082557 | 9 | 30 | 3.2 | 6.4 | 0.00 | 0.00 | 0.00 | 61 | 1007.7 |
| 20260505082057 | 9 | 31 | 1.6 | 3.2 | 0.00 | 0.00 | 0.00 | 62 | 1007.6 |
| 20260505081558 | 9 | 31 | 1.6 | 4.8 | 0.00 | 0.00 | 0.00 | 62 | 1007.6 |
| 20260505081057 | 9 | 31 | 0.0 | 6.4 | 0.00 | 0.00 | 0.00 | 61 | 1008.0 |
| 20260505080557 | 9 | 31 | 1.6 | 6.4 | 0.00 | 0.00 | 0.00 | 61 | 1008.0 |
| 20260505080059 | 10 | 32 | 1.6 | 4.8 | 0.00 | 0.00 | 0.00 | 61 | 1008.0 |
| 20260505075557 | 10 | 32 | 1.6 | 4.8 | 0.00 | 0.00 | 0.00 | 59 | 1007.7 |
| 20260505075055 | 10 | 32 | 1.6 | 6.4 | 0.00 | 0.00 | 0.00 | 58 | 1007.6 |
| 20260505074555 | 10 | 32 | 1.6 | 6.4 | 0.00 | 0.00 | 0.00 | 59 | 1007.3 |
| 20260505074056 | 10 | 0 | 1.6 | 6.4 | 0.00 | 0.00 | 0.00 | 58 | 1007.3 |
| 20260505073555 | 10 | 32 | 1.6 | 6.4 | 0.00 | 0.00 | 0.00 | 59 | 1007.3 |
| 20260505073102 | 10 | 0 | 0.0 | 6.4 | 0.00 | 0.00 | 0.00 | 60 | 1007.5 |
| 20260505072557 | 10 | 0 | 3.2 | 6.4 | 0.00 | 0.00 | 0.00 | 59 | 1007.3 |
| 20260505072056 | 10 | 13 | 0.0 | 4.8 | 0.00 | 0.00 | 0.00 | 59 | 1008.1 |
| 20260505071558 | 10 | 13 | 0.0 | 4.8 | 0.00 | 0.00 | 0.00 | 59 | 1008.5 |
| 20260505071057 | 10 | 13 | 1.6 | 4.8 | 0.00 | 0.00 | 0.00 | 58 | 1008.9 |
| 20260505070556 | 10 | 13 | 1.6 | 4.8 | 0.00 | 0.00 | 0.00 | 57 | 1008.8 |
| 20260505070059 | 10 | 13 | 0.0 | 3.2 | 0.00 | 0.00 | 0.00 | 56 | 1008.4 |
| 20260505065556 | 10 | 0 | 0.0 | 6.4 | 0.00 | 0.00 | 0.00 | 55 | 1008.1 |
| 20260505065055 | 10 | 0 | 1.6 | 6.4 | 0.00 | 0.00 | 0.00 | 55 | 1008.1 |
| 20260505064556 | 10 | 0 | 1.6 | 9.7 | 0.00 | 0.00 | 0.00 | 55 | 1008.4 |
| 20260505064055 | 10 | 352 | 1.6 | 9.7 | 0.00 | 0.00 | 0.00 | 55 | 1008.5 |
| 20260505063555 | 10 | 326 | 4.8 | 9.7 | 0.00 | 0.00 | 0.00 | 56 | 1008.9 |
| 20260505063100 | 10 | 17 | 3.2 | 12.9 | 0.00 | 0.00 | 0.00 | 55 | 1008.3 |
| 20260505062556 | 10 | 29 | 4.8 | 12.9 | 0.00 | 0.00 | 0.00 | 57 | 1007.8 |
| 20260505062056 | 10 | 27 | 4.8 | 12.9 | 0.00 | 0.00 | 0.00 | 58 | 1007.8 |
| 20260505061605 | 10 | 21 | 4.8 | 8.0 | 0.00 | 0.00 | 0.00 | 59 | 1008.1 |
| 20260505061056 | 10 | 13 | 3.2 | 8.0 | 0.00 | 0.00 | 0.00 | 59 | 1008.5 |
| 20260505060557 | 10 | 13 | 1.6 | 8.0 | 0.00 | 0.00 | 0.00 | 60 | 1008.6 |
| 20260505055556 | 10 | 0 | 1.6 | 6.4 | 0.00 | 0.00 | 0.00 | 58 | 1007.7 |
| 20260505055100 | 10 | 22 | 3.2 | 8.0 | 0.00 | 0.00 | 0.00 | 57 | 1008.6 |
| 20260505054557 | 10 | 22 | 3.2 | 8.0 | 0.00 | 0.00 | 0.00 | 56 | 1008.5 |
| 20260505054055 | 10 | 24 | 4.8 | 8.0 | 0.00 | 0.00 | 0.00 | 55 | 1008.2 |
| 20260505053555 | 10 | 23 | 4.8 | 8.0 | 0.00 | 0.00 | 0.00 | 56 | 1008.1 |
| 20260505053111 | 10 | 20 | 3.2 | 8.0 | 0.00 | 0.00 | 0.00 | 58 | 1007.9 |
| 20260505052559 | 10 | 9 | 3.2 | 8.0 | 0.00 | 0.00 | 0.00 | 59 | 1007.9 |
| 20260505052059 | 10 | 9 | 1.6 | 12.9 | 0.00 | 0.00 | 0.00 | 59 | 1008.1 |
| 20260505051602 | 10 | 22 | 4.8 | 14.5 | 0.00 | 0.00 | 0.00 | 59 | 1008.0 |
| 20260505051056 | 10 | 360 | 8.0 | 14.5 | 0.00 | 0.00 | 0.00 | 60 | 1007.5 |
| 20260505050556 | 10 | 19 | 6.4 | 17.7 | 0.00 | 0.00 | 0.00 | 59 | 1007.6 |
| 20260505050129 | 10 | 23 | 8.0 | 17.7 | 0.00 | 0.00 | 0.00 | 58 | 1007.5 |
| 20260505041611 | 10 | 48 | 9.7 | 29.0 | 0.00 | 0.00 | 0.00 | 58 | 1007.1 |
| 20260505041057 | 11 | 39 | 14.5 | 32.2 | 0.00 | 0.00 | 0.00 | 56 | 1007.2 |
| 20260505040559 | 11 | 19 | 12.9 | 32.2 | 0.00 | 0.00 | 0.00 | 54 | 1007.3 |
| 20260505040108 | 11 | 338 | 14.5 | 27.4 | 0.00 | 0.00 | 0.00 | 51 | 1007.7 |
| 20260505035602 | 11 | 15 | 12.9 | 27.4 | 0.00 | 0.00 | 0.00 | 52 | 1007.8 |
| 20260505035056 | 11 | 21 | 11.3 | 27.4 | 0.00 | 0.00 | 0.00 | 55 | 1007.9 |
| 20260505034605 | 11 | 360 | 8.0 | 20.9 | 0.00 | 0.00 | 0.00 | 59 | 1007.8 |
| 20260505034055 | 11 | 324 | 8.0 | 20.9 | 0.00 | 0.00 | 0.00 | 58 | 1007.9 |
| 20260505033556 | 11 | 9 | 8.0 | 22.5 | 0.00 | 0.00 | 0.00 | 55 | 1007.9 |
| 20260505033055 | 12 | 9 | 9.7 | 22.5 | 0.00 | 0.00 | 0.00 | 53 | 1007.8 |
| 20260505032555 | 12 | 26 | 9.7 | 37.0 | 0.00 | 0.00 | 0.00 | 52 | 1007.7 |
| 20260505032100 | 12 | 10 | 14.5 | 37.0 | 0.00 | 0.00 | 0.00 | 48 | 1007.0 |
| 20260505031601 | 12 | 355 | 14.5 | 27.4 | 0.00 | 0.00 | 0.00 | 45 | 1006.8 |
| 20260505031056 | 12 | 344 | 12.9 | 22.5 | 0.00 | 0.00 | 0.00 | 46 | 1006.6 |
| 20260505030556 | 12 | 329 | 9.7 | 20.9 | 0.00 | 0.00 | 0.00 | 46 | 1007.0 |
| 20260505030056 | 12 | 350 | 8.0 | 16.1 | 0.00 | 0.00 | 0.00 | 46 | 1006.8 |
| 20260505025555 | 13 | 335 | 8.0 | 16.1 | 0.00 | 0.00 | 0.00 | 45 | 1006.8 |
| 20260505025055 | 13 | 17 | 8.0 | 25.7 | 0.00 | 0.00 | 0.00 | 45 | 1006.5 |
| 20260505024555 | 13 | 13 | 9.7 | 25.7 | 0.00 | 0.00 | 0.00 | 44 | 1006.4 |
| 20260505024055 | 13 | 342 | 11.3 | 24.1 | 0.00 | 0.00 | 0.00 | 43 | 1006.3 |
| 20260505023555 | 13 | 30 | 11.3 | 25.7 | 0.00 | 0.00 | 0.00 | 43 | 1006.1 |
| 20260505023056 | 13 | 350 | 9.7 | 25.7 | 0.00 | 0.00 | 0.00 | 44 | 1006.4 |
| 20260505022555 | 13 | 24 | 12.9 | 27.4 | 0.00 | 0.00 | 0.00 | 44 | 1006.5 |
| 20260505022055 | 13 | 10 | 12.9 | 32.2 | 0.00 | 0.00 | 0.00 | 43 | 1006.5 |
| 20260505021555 | 13 | 13 | 16.1 | 38.6 | 0.00 | 0.00 | 0.00 | 43 | 1006.6 |
| 20260505021056 | 13 | 350 | 14.5 | 38.6 | 0.00 | 0.00 | 0.00 | 42 | 1006.5 |
| 20260505020556 | 14 | 5 | 14.5 | 33.8 | 0.00 | 0.00 | 0.00 | 42 | 1006.5 |
| 20260505020057 | 14 | 5 | 14.5 | 33.8 | 0.00 | 0.00 | 0.00 | 42 | 1006.2 |
| 20260505015556 | 14 | 23 | 12.9 | 29.0 | 0.00 | 0.00 | 0.00 | 41 | 1006.3 |
| 20260505015056 | 14 | 24 | 11.3 | 22.5 | 0.00 | 0.00 | 0.00 | 41 | 1006.3 |
| 20260505014606 | 14 | 316 | 9.7 | 29.0 | 0.00 | 0.00 | 0.00 | 41 | 1006.2 |
| 20260505014056 | 14 | 11 | 11.3 | 35.4 | 0.00 | 0.00 | 0.00 | 40 | 1006.0 |
| 20260505013555 | 14 | 11 | 9.7 | 35.4 | 0.00 | 0.00 | 0.00 | 40 | 1005.8 |
| 20260505013055 | 15 | 323 | 11.3 | 29.0 | 0.00 | 0.00 | 0.00 | 40 | 1005.6 |
| 20260505012556 | 15 | 12 | 11.3 | 29.0 | 0.00 | 0.00 | 0.00 | 39 | 1005.6 |
| 20260505012056 | 15 | 10 | 16.1 | 29.0 | 0.00 | 0.00 | 0.00 | 39 | 1005.5 |
| 20260505011604 | 15 | 5 | 16.1 | 29.0 | 0.00 | 0.00 | 0.00 | 38 | 1005.5 |
| 20260505011055 | 15 | 28 | 12.9 | 32.2 | 0.00 | 0.00 | 0.00 | 37 | 1005.4 |
| 20260505010554 | 16 | 23 | 12.9 | 32.2 | 0.00 | 0.00 | 0.00 | 37 | 1005.2 |
| 20260505010057 | 16 | 5 | 14.5 | 35.4 | 0.00 | 0.00 | 0.00 | 37 | 1005.0 |
| 20260505005554 | 16 | 19 | 17.7 | 35.4 | 0.00 | 0.00 | 0.00 | 37 | 1004.5 |
| 20260505005057 | 16 | 345 | 14.5 | 32.2 | 0.00 | 0.00 | 0.00 | 36 | 1004.5 |
| 20260505004555 | 16 | 34 | 19.3 | 33.8 | 0.00 | 0.00 | 0.00 | 35 | 1004.5 |
| 20260505004057 | 17 | 321 | 16.1 | 33.8 | 0.00 | 0.00 | 0.00 | 34 | 1004.3 |
| 20260505003559 | 17 | 331 | 17.7 | 33.8 | 0.00 | 0.00 | 0.00 | 33 | 1004.0 |
| 20260505003055 | 18 | 345 | 16.1 | 33.8 | 0.00 | 0.00 | 0.00 | 32 | 1004.0 |
| 20260505002556 | 18 | 319 | 12.9 | 29.0 | 0.00 | 0.00 | 0.00 | 32 | 1003.9 |
| 20260505002057 | 18 | 16 | 11.3 | 37.0 | 0.00 | 0.00 | 0.00 | 31 | 1003.8 |
| 20260505001623 | 18 | 10 | 14.5 | 37.0 | 0.00 | 0.00 | 0.00 | 31 | 1003.7 |
| 20260505001059 | 19 | 17 | 17.7 | 37.0 | 0.00 | 0.00 | 0.00 | 30 | 1003.7 |
| 20260505000556 | 20 | 11 | 12.9 | 32.2 | 0.00 | 0.00 | 0.00 | 30 | 1003.7 |
| 20260505000133 | 20 | 310 | 12.9 | 30.6 | 0.00 | 0.00 | 0.00 | 29 | 1003.5 |
| 20260504235559 | 20 | 351 | 14.5 | 30.6 | 0.00 | 0.00 | 0.00 | 29 | 1003.5 |
| 20260504235056 | 20 | 24 | 14.5 | 30.6 | 0.00 | 0.00 | 0.00 | 29 | 1003.5 |
| 20260504234612 | 21 | 20 | 14.5 | 35.4 | 0.00 | 0.00 | 0.00 | 29 | 1003.3 |
| 20260504234054 | 21 | 11 | 14.5 | 35.4 | 0.00 | 0.00 | 0.00 | 29 | 1003.3 |
| 20260504233556 | 21 | 19 | 14.5 | 33.8 | 0.00 | 0.00 | 0.00 | 29 | 1003.2 |
| 20260504233106 | 21 | 15 | 11.3 | 30.6 | 0.00 | 0.00 | 0.00 | 29 | 1003.2 |
| 20260504232555 | 21 | 327 | 16.1 | 35.4 | 0.00 | 0.00 | 0.00 | 29 | 1003.2 |
| 20260504232055 | 22 | 15 | 12.9 | 35.4 | 0.00 | 0.00 | 0.00 | 29 | 1003.2 |
| 20260504231556 | 22 | 355 | 14.5 | 32.2 | 0.00 | 0.00 | 0.00 | 29 | 1003.2 |
| 20260504231055 | 22 | 32 | 14.5 | 29.0 | 0.00 | 0.00 | 0.00 | 28 | 1003.2 |
| 20260504230557 | 22 | 21 | 14.5 | 33.8 | 0.00 | 0.00 | 0.00 | 28 | 1003.1 |
| 20260504230055 | 22 | 22 | 14.5 | 33.8 | 0.00 | 0.00 | 0.00 | 28 | 1003.0 |
| 20260504225556 | 23 | 29 | 14.5 | 37.0 | 0.00 | 0.00 | 0.00 | 29 | 1002.9 |
| 20260504225055 | 23 | 34 | 14.5 | 37.0 | 0.00 | 0.00 | 0.00 | 28 | 1002.8 |
| 20260504224610 | 23 | 5 | 16.1 | 32.2 | 0.00 | 0.00 | 0.00 | 27 | 1002.7 |
| 20260504224056 | 23 | 16 | 14.5 | 25.7 | 0.00 | 0.00 | 0.00 | 27 | 1002.6 |
| 20260504223556 | 23 | 19 | 11.3 | 27.4 | 0.00 | 0.00 | 0.00 | 28 | 1002.5 |
| 20260504223102 | 23 | 319 | 11.3 | 29.0 | 0.00 | 0.00 | 0.00 | 27 | 1002.4 |
| 20260504222556 | 23 | 13 | 9.7 | 29.0 | 0.00 | 0.00 | 0.00 | 27 | 1002.4 |
| 20260504222056 | 23 | 352 | 14.5 | 29.0 | 0.00 | 0.00 | 0.00 | 27 | 1002.3 |
| 20260504221557 | 23 | 344 | 12.9 | 29.0 | 0.00 | 0.00 | 0.00 | 26 | 1002.1 |
| 20260504221055 | 23 | 11 | 9.7 | 30.6 | 0.00 | 0.00 | 0.00 | 27 | 1002.1 |
| 20260504220558 | 23 | 355 | 12.9 | 30.6 | 0.00 | 0.00 | 0.00 | 26 | 1001.9 |
| 20260504220100 | 24 | 24 | 8.0 | 29.0 | 0.00 | 0.00 | 0.00 | 26 | 1001.9 |
| 20260504215555 | 24 | 30 | 12.9 | 29.0 | 0.00 | 0.00 | 0.00 | 27 | 1001.8 |
| 20260504215100 | 24 | 20 | 12.9 | 29.0 | 0.00 | 0.00 | 0.00 | 26 | 1001.7 |
| 20260504214555 | 24 | 17 | 12.9 | 27.4 | 0.00 | 0.00 | 0.00 | 26 | 1001.7 |
| 20260504214056 | 25 | 32 | 11.3 | 27.4 | 0.00 | 0.00 | 0.00 | 26 | 1001.7 |
| 20260504213556 | 25 | 329 | 12.9 | 29.0 | 0.00 | 0.00 | 0.00 | 27 | 1001.7 |
| 20260504213125 | 25 | 326 | 12.9 | 29.0 | 0.00 | 0.00 | 0.00 | 27 | 1001.7 |
| 20260504212556 | 25 | 19 | 8.0 | 27.4 | 0.00 | 0.00 | 0.00 | 27 | 1001.6 |
| 20260504212056 | 25 | 32 | 11.3 | 27.4 | 0.00 | 0.00 | 0.00 | 27 | 1001.6 |
| 20260504211605 | 25 | 34 | 9.7 | 24.1 | 0.00 | 0.00 | 0.00 | 27 | 1001.5 |
| 20260504211055 | 25 | 360 | 8.0 | 24.1 | 0.00 | 0.00 | 0.00 | 28 | 1001.5 |
| 20260504210557 | 25 | 27 | 8.0 | 25.7 | 0.00 | 0.00 | 0.00 | 29 | 1001.4 |
| 20260504210059 | 25 | 5 | 9.7 | 29.0 | 0.00 | 0.00 | 0.00 | 29 | 1001.4 |
| 20260504205559 | 25 | 49 | 11.3 | 29.0 | 0.00 | 0.00 | 0.00 | 29 | 1001.4 |
| 20260504205056 | 25 | 355 | 11.3 | 25.7 | 0.00 | 0.00 | 0.00 | 30 | 1001.3 |
| 20260504204557 | 25 | 29 | 12.9 | 27.4 | 0.00 | 0.00 | 0.00 | 29 | 1001.2 |
| 20260504204054 | 26 | 5 | 9.7 | 27.4 | 0.00 | 0.00 | 0.00 | 31 | 1001.3 |
| 20260504203559 | 26 | 25 | 12.9 | 27.4 | 0.00 | 0.00 | 0.00 | 32 | 1001.1 |
| 20260504203119 | 26 | 38 | 9.7 | 25.7 | 0.00 | 0.00 | 0.00 | 32 | 1001.1 |
| 20260504202557 | 26 | 301 | 14.5 | 25.7 | 0.00 | 0.00 | 0.00 | 33 | 1001.0 |
| 20260504202055 | 26 | 5 | 6.4 | 25.7 | 0.00 | 0.00 | 0.00 | 34 | 1001.1 |
| 20260504201554 | 26 | 332 | 12.9 | 32.2 | 0.00 | 0.00 | 0.00 | 33 | 1001.1 |
| 20260504201057 | 25 | 311 | 14.5 | 32.2 | 0.00 | 0.00 | 0.00 | 33 | 1001.1 |
| 20260504200556 | 26 | 36 | 16.1 | 30.6 | 0.00 | 0.00 | 0.00 | 33 | 1001.1 |
| 20260504200057 | 26 | 318 | 14.5 | 30.6 | 0.00 | 0.00 | 0.00 | 32 | 1001.0 |
| 20260504195601 | 26 | 345 | 11.3 | 30.6 | 0.00 | 0.00 | 0.00 | 33 | 1001.1 |
| 20260504195059 | 26 | 292 | 14.5 | 27.4 | 0.00 | 0.00 | 0.00 | 33 | 1001.1 |
| 20260504194606 | 26 | 17 | 14.5 | 32.2 | 0.00 | 0.00 | 0.00 | 31 | 1000.8 |
| 20260504194056 | 26 | 314 | 14.5 | 32.2 | 0.00 | 0.00 | 0.00 | 31 | 1000.8 |
| 20260504193557 | 26 | 315 | 14.5 | 32.2 | 0.00 | 0.00 | 0.00 | 31 | 1000.7 |
| 20260504193109 | 27 | 26 | 9.7 | 24.1 | 0.00 | 0.00 | 0.00 | 30 | 1000.7 |
| 20260504192555 | 26 | 315 | 14.5 | 30.6 | 0.00 | 0.00 | 0.00 | 28 | 1000.6 |
| 20260504192055 | 26 | 297 | 16.1 | 37.0 | 0.00 | 0.00 | 0.00 | 28 | 1000.6 |
| 20260504191556 | 26 | 11 | 19.3 | 37.0 | 0.00 | 0.00 | 0.00 | 28 | 1000.5 |
| 20260504191056 | 26 | 309 | 16.1 | 29.0 | 0.00 | 0.00 | 0.00 | 29 | 1000.5 |
| 20260504190559 | 26 | 295 | 14.5 | 29.0 | 0.00 | 0.00 | 0.00 | 28 | 1000.4 |
| 20260504190114 | 26 | 306 | 12.9 | 27.4 | 0.00 | 0.00 | 0.00 | 29 | 1000.6 |
| 20260504185555 | 26 | 263 | 14.5 | 33.8 | 0.00 | 0.00 | 0.00 | 29 | 1000.6 |
| 20260504185057 | 26 | 5 | 14.5 | 33.8 | 0.00 | 0.00 | 0.00 | 27 | 1000.6 |
| 20260504184605 | 26 | 317 | 14.5 | 27.4 | 0.00 | 0.00 | 0.00 | 28 | 1000.6 |
| 20260504184056 | 26 | 288 | 12.9 | 27.4 | 0.00 | 0.00 | 0.00 | 28 | 1000.6 |
| 20260504183559 | 26 | 295 | 12.9 | 25.7 | 0.00 | 0.00 | 0.00 | 29 | 1000.7 |
| 20260504183056 | 26 | 274 | 14.5 | 25.7 | 0.00 | 0.00 | 0.00 | 29 | 1000.6 |
| 20260504182559 | 26 | 305 | 12.9 | 24.1 | 0.00 | 0.00 | 0.00 | 29 | 1000.6 |
| 20260504182055 | 26 | 277 | 8.0 | 29.0 | 0.00 | 0.00 | 0.00 | 29 | 1000.6 |
| 20260504181554 | 26 | 301 | 16.1 | 30.6 | 0.00 | 0.00 | 0.00 | 27 | 1000.7 |
| 20260504181056 | 26 | 311 | 9.7 | 33.8 | 0.00 | 0.00 | 0.00 | 30 | 1000.8 |
| 20260504180558 | 26 | 313 | 17.7 | 33.8 | 0.00 | 0.00 | 0.00 | 31 | 1000.8 |
| 20260504180056 | 26 | 239 | 14.5 | 29.0 | 0.00 | 0.00 | 0.00 | 29 | 1000.7 |
| 20260504175600 | 26 | 317 | 16.1 | 30.6 | 0.00 | 0.00 | 0.00 | 30 | 1000.9 |
| 20260504175059 | 25 | 294 | 17.7 | 32.2 | 0.00 | 0.00 | 0.00 | 30 | 1000.8 |
| 20260504174617 | 25 | 267 | 14.5 | 45.1 | 0.00 | 0.00 | 0.00 | 31 | 1000.8 |
| 20260504174053 | 25 | 292 | 24.1 | 45.1 | 0.00 | 0.00 | 0.00 | 31 | 1000.8 |
| 20260504173555 | 25 | 299 | 16.1 | 29.0 | 0.00 | 0.00 | 0.00 | 31 | 1000.8 |
| 20260504173120 | 25 | 281 | 17.7 | 41.8 | 0.00 | 0.00 | 0.00 | 31 | 1000.7 |
| 20260504172555 | 25 | 295 | 19.3 | 41.8 | 0.00 | 0.00 | 0.00 | 32 | 1000.7 |
| 20260504172101 | 25 | 291 | 14.5 | 33.8 | 0.00 | 0.00 | 0.00 | 32 | 1000.7 |
| 20260504171558 | 25 | 348 | 12.9 | 37.0 | 0.00 | 0.00 | 0.00 | 31 | 1000.5 |
| 20260504171056 | 25 | 298 | 16.1 | 37.0 | 0.00 | 0.00 | 0.00 | 31 | 1000.5 |
| 20260504170557 | 25 | 309 | 17.7 | 41.8 | 0.00 | 0.00 | 0.00 | 32 | 1000.5 |
| 20260504160105 | 25 | 286 | 11.3 | 29.0 | 0.00 | 0.00 | 0.00 | 33 | 1000.5 |
| 20260504151056 | 21 | 234 | 11.3 | 22.5 | 0.00 | 0.00 | 0.00 | 46 | 1001.0 |
| 20260504150559 | 21 | 265 | 11.3 | 22.5 | 0.00 | 0.00 | 0.00 | 46 | 1000.9 |